createdAt,value
2022-09-22T06:47:36.640Z,2.33
2022-09-22T06:52:38.526Z,1.98
2022-09-22T06:57:39.890Z,2.15
2022-09-22T07:02:41.201Z,1.95
2022-09-22T07:07:42.519Z,2.38
2022-09-22T07:12:43.852Z,2.30
2022-09-22T07:17:45.364Z,1.95
2022-09-22T07:22:46.681Z,2.25
2022-09-22T07:27:48.449Z,2.20
2022-09-22T07:32:49.755Z,2.28
2022-09-22T07:37:59.297Z,2.70
2022-09-22T07:43:00.641Z,2.60
2022-09-22T07:48:22.757Z,2.35
2022-09-22T07:53:24.219Z,2.35
2022-09-22T07:58:25.882Z,2.90
2022-09-22T08:03:27.350Z,2.60
2022-09-22T08:08:30.163Z,2.95
2022-09-22T08:13:31.712Z,2.65
2022-09-22T08:18:35.190Z,2.30
2022-09-22T08:23:37.582Z,2.65
2022-09-22T08:28:42.684Z,1.88
2022-09-22T08:33:44.192Z,2.50
2022-09-22T08:38:48.663Z,2.55
2022-09-22T08:44:01.520Z,2.35
2022-09-22T08:49:33.062Z,2.58
2022-09-22T08:54:35.315Z,2.63
2022-09-22T08:59:47.968Z,2.30
2022-09-22T09:05:36.757Z,2.30
2022-09-22T09:10:53.144Z,2.00
2022-09-22T09:16:19.587Z,1.90
2022-09-22T09:21:25.307Z,1.83
2022-09-22T09:26:28.857Z,1.63
2022-09-22T09:31:33.365Z,1.77
2022-09-22T09:36:42.548Z,2.17
2022-09-22T09:41:48.458Z,1.90
2022-09-22T09:46:58.562Z,2.08
2022-09-22T09:52:01.941Z,1.70
2022-09-22T09:57:12.576Z,1.45
2022-09-22T10:02:28.566Z,1.90
2022-09-22T10:08:15.445Z,1.65
2022-09-22T10:13:38.450Z,1.90
2022-09-22T10:18:40.847Z,1.30
2022-09-22T10:23:47.246Z,1.48
2022-09-22T10:29:13.059Z,1.27
2022-09-22T10:34:33.362Z,1.10
2022-09-22T10:39:49.903Z,0.85
2022-09-22T10:44:52.856Z,1.02
2022-09-22T10:50:06.568Z,1.40
2022-09-22T10:55:27.923Z,1.23
2022-09-22T11:00:38.219Z,1.42
2022-09-22T11:06:37.183Z,1.23
2022-09-22T11:12:16.512Z,1.50
2022-09-22T11:17:17.944Z,1.30
2022-09-22T11:22:48.807Z,1.55
2022-09-22T11:28:03.166Z,1.50
2022-09-22T11:33:04.793Z,1.40
2022-09-22T11:38:18.324Z,1.73
2022-09-22T11:43:58.556Z,1.83
2022-09-22T11:49:22.402Z,1.40
2022-09-22T11:54:50.310Z,1.88
2022-09-22T11:59:57.306Z,1.10
2022-09-22T12:05:12.714Z,1.23
2022-09-22T12:10:29.830Z,1.20
2022-09-22T12:15:35.596Z,1.20
2022-09-22T12:20:49.590Z,1.08
2022-09-22T12:25:56.072Z,1.40
2022-09-22T12:31:04.910Z,0.93
2022-09-22T12:36:07.028Z,1.67
2022-09-22T12:41:08.698Z,1.30
2022-09-22T12:46:41.240Z,1.20
2022-09-22T12:51:45.427Z,1.48
2022-09-22T12:56:56.238Z,1.15
2022-09-22T13:02:17.676Z,1.17
2022-09-22T13:07:36.586Z,0.90
2022-09-22T13:12:38.094Z,1.10
2022-09-22T13:17:50.300Z,0.90
2022-09-22T13:22:52.178Z,1.00
2022-09-22T13:28:11.752Z,1.00
2022-09-22T13:33:36.634Z,0.80
2022-09-22T13:38:43.507Z,1.00
2022-09-22T13:43:48.699Z,1.05
2022-09-22T13:48:52.159Z,1.02
2022-09-22T13:53:56.320Z,0.80
2022-09-22T13:59:01.782Z,1.15
2022-09-22T14:04:04.103Z,1.10
2022-09-22T14:09:06.351Z,1.00
2022-09-22T14:14:23.403Z,1.13
2022-09-22T14:19:34.028Z,1.00
2022-09-22T14:24:38.409Z,1.10
2022-09-22T14:29:40.888Z,0.93
2022-09-22T14:34:47.775Z,0.80
2022-09-22T14:39:56.797Z,0.80
2022-09-22T14:45:10.756Z,0.90
2022-09-22T14:50:20.081Z,0.90
2022-09-22T14:55:34.224Z,0.82
2022-09-22T15:00:54.434Z,0.80
2022-09-22T15:06:06.159Z,0.60
2022-09-22T15:11:07.637Z,1.10
2022-09-22T15:16:38.812Z,0.65
2022-09-22T15:21:47.452Z,0.80
2022-09-22T15:26:51.136Z,0.88
2022-09-22T15:31:52.690Z,0.63
2022-09-22T15:36:57.089Z,0.82
2022-09-22T15:41:58.759Z,0.70
2022-09-22T15:47:01.298Z,0.90
2022-09-22T15:52:04.853Z,0.80
2022-09-22T15:57:06.400Z,0.82
2022-09-22T16:02:11.564Z,0.65
2022-09-22T16:07:14.210Z,0.65
2022-09-22T16:12:15.836Z,0.60
2022-09-22T16:17:17.346Z,0.70
2022-09-22T16:22:18.859Z,0.80
2022-09-22T16:27:20.352Z,0.80
2022-09-22T16:32:21.868Z,1.15
2022-09-22T16:37:23.484Z,1.65
2022-09-22T16:42:24.978Z,2.70
2022-09-22T16:47:26.465Z,2.35
2022-09-22T16:52:31.880Z,2.05
2022-09-22T16:57:33.526Z,0.88
2022-09-22T17:02:35.114Z,0.73
2022-09-22T17:07:37.105Z,1.00
2022-09-22T17:12:38.763Z,0.90
2022-09-22T17:17:40.515Z,0.90
2022-09-22T17:22:42.006Z,1.00
2022-09-22T17:27:43.478Z,1.10
2022-09-22T17:32:45.923Z,1.50
2022-09-22T17:37:48.855Z,3.33
2022-09-22T17:42:50.348Z,4.53
2022-09-22T17:48:10.272Z,6.00
2022-09-22T17:53:30.132Z,6.40
2022-09-22T17:58:31.651Z,4.25
2022-09-22T18:03:33.160Z,2.90
2022-09-22T18:08:34.649Z,1.95
2022-09-22T18:13:39.225Z,1.60
2022-09-22T18:18:41.147Z,1.58
2022-09-22T18:23:42.792Z,1.58
2022-09-22T18:28:44.256Z,1.52
2022-09-22T18:33:45.995Z,1.20
2022-09-22T18:38:47.463Z,1.60
2022-09-22T18:43:53.848Z,1.50
2022-09-22T18:49:05.902Z,2.22
2022-09-22T18:54:14.871Z,1.75
2022-09-22T18:59:19.838Z,2.10
2022-09-22T19:04:23.403Z,1.60
2022-09-22T19:09:24.972Z,1.38
2022-09-22T19:14:27.119Z,1.40
2022-09-22T19:19:28.748Z,0.90
2022-09-22T19:24:32.373Z,1.25
2022-09-22T19:29:34.395Z,1.35
2022-09-22T19:34:36.089Z,1.30
2022-09-22T19:39:37.568Z,1.30
2022-09-22T19:44:40.141Z,1.35
2022-09-22T19:49:44.245Z,1.25
2022-09-22T19:54:45.742Z,1.17
2022-09-22T19:59:47.257Z,1.40
2022-09-22T20:04:49.299Z,1.25
2022-09-22T20:09:53.196Z,1.00
2022-09-22T20:14:54.682Z,1.10
2022-09-22T20:19:56.187Z,1.20
2022-09-22T20:25:00.436Z,1.60
2022-09-22T20:30:02.656Z,1.60
2022-09-22T20:35:04.494Z,2.05
2022-09-22T20:40:11.150Z,1.55
2022-09-22T20:45:13.145Z,1.77
2022-09-22T20:50:14.726Z,1.92
2022-09-22T20:55:17.123Z,1.60
2022-09-22T21:00:18.656Z,1.63
2022-09-22T21:05:20.236Z,1.60
2022-09-22T21:10:36.601Z,1.27
2022-09-22T21:15:38.554Z,1.67
2022-09-22T21:20:41.356Z,1.70
2022-09-22T21:25:42.871Z,1.80
2022-09-22T21:30:53.602Z,1.83
2022-09-22T21:36:13.761Z,1.75
2022-09-22T21:46:21.309Z,1.70
2022-09-22T21:51:22.879Z,1.83
2022-09-22T21:56:25.915Z,1.70
2022-09-22T22:01:32.461Z,1.50
2022-09-22T22:06:42.886Z,2.03
2022-09-22T22:11:58.900Z,2.55
2022-09-22T22:17:02.204Z,2.03
2022-09-22T22:22:04.671Z,2.28
2022-09-22T22:27:09.834Z,2.35
2022-09-22T22:32:11.411Z,2.13
2022-09-22T22:37:12.945Z,1.95
2022-09-22T22:42:14.487Z,2.15
2022-09-22T22:47:17.102Z,2.47
2022-09-22T22:52:18.584Z,1.88
2022-09-22T22:57:21.179Z,2.25
2022-09-22T23:02:22.716Z,2.30
2022-09-22T23:07:24.213Z,2.55
2022-09-22T23:12:30.371Z,2.40
2022-09-22T23:17:32.061Z,2.10
2022-09-22T23:22:33.739Z,2.50
2022-09-22T23:27:35.225Z,2.65
2022-09-22T23:32:36.825Z,2.53
2022-09-22T23:37:38.532Z,2.47
2022-09-22T23:42:40.051Z,2.65
2022-09-22T23:47:41.678Z,2.90
2022-09-22T23:52:43.189Z,2.47
2022-09-22T23:57:44.863Z,2.85
